sensor_id;sensor_type;location;lat;lon;timestamp;P1;durP1;ratioP1;P2;durP2;ratioP2
8113;SDS011;4099;52.684;9.918;2022-10-26T00:03:15;11.10;;;7.63;;
8113;SDS011;4099;52.684;9.918;2022-10-26T00:08:17;8.83;;;6.67;;
8113;SDS011;4099;52.684;9.918;2022-10-26T00:13:19;9.23;;;6.80;;
8113;SDS011;4099;52.684;9.918;2022-10-26T00:18:22;7.87;;;6.00;;
8113;SDS011;4099;52.684;9.918;2022-10-26T00:23:24;12.07;;;6.30;;
8113;SDS011;4099;52.684;9.918;2022-10-26T00:28:26;7.27;;;5.97;;
8113;SDS011;4099;52.684;9.918;2022-10-26T00:33:29;10.23;;;6.70;;
8113;SDS011;4099;52.684;9.918;2022-10-26T00:38:31;7.63;;;6.53;;
8113;SDS011;4099;52.684;9.918;2022-10-26T00:43:34;8.40;;;5.90;;
8113;SDS011;4099;52.684;9.918;2022-10-26T00:48:40;8.40;;;6.17;;
8113;SDS011;4099;52.684;9.918;2022-10-26T00:53:44;9.47;;;6.00;;
8113;SDS011;4099;52.684;9.918;2022-10-26T00:58:47;7.40;;;5.80;;
8113;SDS011;4099;52.684;9.918;2022-10-26T01:03:50;7.83;;;6.17;;
8113;SDS011;4099;52.684;9.918;2022-10-26T01:08:52;6.80;;;5.40;;
8113;SDS011;4099;52.684;9.918;2022-10-26T01:13:55;8.07;;;5.83;;
8113;SDS011;4099;52.684;9.918;2022-10-26T01:19:02;8.23;;;6.27;;
8113;SDS011;4099;52.684;9.918;2022-10-26T01:24:42;9.23;;;6.80;;
8113;SDS011;4099;52.684;9.918;2022-10-26T01:29:52;10.37;;;6.00;;
8113;SDS011;4099;52.684;9.918;2022-10-26T01:35:16;10.67;;;7.13;;
8113;SDS011;4099;52.684;9.918;2022-10-26T01:40:24;10.37;;;7.10;;
8113;SDS011;4099;52.684;9.918;2022-10-26T01:45:32;15.07;;;7.80;;
8113;SDS011;4099;52.684;9.918;2022-10-26T01:50:36;9.43;;;7.37;;
8113;SDS011;4099;52.684;9.918;2022-10-26T01:55:39;10.60;;;6.80;;
8113;SDS011;4099;52.684;9.918;2022-10-26T02:00:48;10.53;;;7.30;;
8113;SDS011;4099;52.684;9.918;2022-10-26T02:06:00;11.10;;;7.40;;
8113;SDS011;4099;52.684;9.918;2022-10-26T02:11:13;8.63;;;7.33;;
8113;SDS011;4099;52.684;9.918;2022-10-26T02:16:25;12.50;;;7.20;;
8113;SDS011;4099;52.684;9.918;2022-10-26T02:21:34;9.53;;;6.50;;
8113;SDS011;4099;52.684;9.918;2022-10-26T02:26:38;10.37;;;6.90;;
8113;SDS011;4099;52.684;9.918;2022-10-26T02:31:42;9.97;;;7.20;;
8113;SDS011;4099;52.684;9.918;2022-10-26T02:36:47;11.03;;;7.07;;
8113;SDS011;4099;52.684;9.918;2022-10-26T02:41:50;8.17;;;6.33;;
8113;SDS011;4099;52.684;9.918;2022-10-26T02:46:56;7.00;;;6.33;;
8113;SDS011;4099;52.684;9.918;2022-10-26T02:52:00;9.13;;;6.87;;
8113;SDS011;4099;52.684;9.918;2022-10-26T02:57:06;10.33;;;6.30;;
8113;SDS011;4099;52.684;9.918;2022-10-26T03:02:14;8.20;;;6.80;;
8113;SDS011;4099;52.684;9.918;2022-10-26T03:07:21;11.73;;;8.13;;
8113;SDS011;4099;52.684;9.918;2022-10-26T03:12:23;13.10;;;8.97;;
8113;SDS011;4099;52.684;9.918;2022-10-26T03:17:26;11.93;;;8.23;;
8113;SDS011;4099;52.684;9.918;2022-10-26T03:22:28;10.77;;;9.00;;
8113;SDS011;4099;52.684;9.918;2022-10-26T03:27:30;11.20;;;9.17;;
8113;SDS011;4099;52.684;9.918;2022-10-26T03:32:33;15.43;;;9.87;;
8113;SDS011;4099;52.684;9.918;2022-10-26T03:37:35;9.97;;;8.27;;
8113;SDS011;4099;52.684;9.918;2022-10-26T03:42:37;11.73;;;8.50;;
8113;SDS011;4099;52.684;9.918;2022-10-26T03:47:43;10.83;;;8.47;;
8113;SDS011;4099;52.684;9.918;2022-10-26T03:52:45;11.20;;;7.73;;
8113;SDS011;4099;52.684;9.918;2022-10-26T03:57:48;9.77;;;7.73;;
8113;SDS011;4099;52.684;9.918;2022-10-26T04:02:54;8.50;;;6.53;;
8113;SDS011;4099;52.684;9.918;2022-10-26T04:07:58;9.73;;;6.80;;
8113;SDS011;4099;52.684;9.918;2022-10-26T04:13:02;9.73;;;6.57;;
8113;SDS011;4099;52.684;9.918;2022-10-26T04:18:05;13.17;;;7.50;;
8113;SDS011;4099;52.684;9.918;2022-10-26T04:23:09;7.90;;;6.87;;
8113;SDS011;4099;52.684;9.918;2022-10-26T04:28:13;10.00;;;7.23;;
8113;SDS011;4099;52.684;9.918;2022-10-26T04:33:16;10.27;;;6.93;;
8113;SDS011;4099;52.684;9.918;2022-10-26T04:38:18;12.17;;;7.50;;
8113;SDS011;4099;52.684;9.918;2022-10-26T04:43:20;9.60;;;6.80;;
8113;SDS011;4099;52.684;9.918;2022-10-26T04:48:23;10.73;;;7.50;;
8113;SDS011;4099;52.684;9.918;2022-10-26T04:53:26;8.90;;;7.20;;
8113;SDS011;4099;52.684;9.918;2022-10-26T04:58:28;11.30;;;7.53;;
8113;SDS011;4099;52.684;9.918;2022-10-26T05:03:31;14.57;;;9.90;;
8113;SDS011;4099;52.684;9.918;2022-10-26T05:08:33;12.53;;;9.93;;
8113;SDS011;4099;52.684;9.918;2022-10-26T05:13:35;15.97;;;9.73;;
8113;SDS011;4099;52.684;9.918;2022-10-26T05:18:38;17.70;;;10.17;;
8113;SDS011;4099;52.684;9.918;2022-10-26T05:23:40;11.10;;;8.63;;
8113;SDS011;4099;52.684;9.918;2022-10-26T05:28:42;16.60;;;10.07;;
8113;SDS011;4099;52.684;9.918;2022-10-26T05:33:46;16.77;;;9.80;;
8113;SDS011;4099;52.684;9.918;2022-10-26T05:38:49;15.93;;;10.63;;
8113;SDS011;4099;52.684;9.918;2022-10-26T05:43:50;15.33;;;9.97;;
8113;SDS011;4099;52.684;9.918;2022-10-26T05:48:54;11.83;;;9.67;;
8113;SDS011;4099;52.684;9.918;2022-10-26T05:53:55;11.37;;;9.40;;
8113;SDS011;4099;52.684;9.918;2022-10-26T05:58:57;12.97;;;9.33;;
8113;SDS011;4099;52.684;9.918;2022-10-26T06:04:05;11.10;;;8.00;;
8113;SDS011;4099;52.684;9.918;2022-10-26T06:09:15;12.73;;;8.67;;
8113;SDS011;4099;52.684;9.918;2022-10-26T06:14:18;10.83;;;8.57;;
8113;SDS011;4099;52.684;9.918;2022-10-26T06:19:23;11.37;;;7.67;;
8113;SDS011;4099;52.684;9.918;2022-10-26T06:24:33;15.83;;;8.37;;
8113;SDS011;4099;52.684;9.918;2022-10-26T06:29:40;10.47;;;7.70;;
8113;SDS011;4099;52.684;9.918;2022-10-26T06:34:51;11.67;;;8.57;;
8113;SDS011;4099;52.684;9.918;2022-10-26T06:39:58;9.77;;;8.33;;
8113;SDS011;4099;52.684;9.918;2022-10-26T06:45:01;11.20;;;8.10;;
8113;SDS011;4099;52.684;9.918;2022-10-26T06:50:06;11.17;;;8.37;;
8113;SDS011;4099;52.684;9.918;2022-10-26T06:55:19;16.97;;;9.33;;
8113;SDS011;4099;52.684;9.918;2022-10-26T07:00:23;12.07;;;7.80;;
8113;SDS011;4099;52.684;9.918;2022-10-26T07:05:27;18.60;;;12.43;;
8113;SDS011;4099;52.684;9.918;2022-10-26T07:10:29;17.13;;;11.33;;
8113;SDS011;4099;52.684;9.918;2022-10-26T07:15:31;19.97;;;12.00;;
8113;SDS011;4099;52.684;9.918;2022-10-26T07:20:35;19.63;;;11.90;;
8113;SDS011;4099;52.684;9.918;2022-10-26T07:25:38;17.50;;;10.83;;
8113;SDS011;4099;52.684;9.918;2022-10-26T07:30:40;11.80;;;8.93;;
8113;SDS011;4099;52.684;9.918;2022-10-26T07:35:43;12.53;;;8.60;;
8113;SDS011;4099;52.684;9.918;2022-10-26T07:40:45;12.00;;;9.07;;
8113;SDS011;4099;52.684;9.918;2022-10-26T07:45:49;11.63;;;8.63;;
8113;SDS011;4099;52.684;9.918;2022-10-26T07:50:52;15.13;;;8.87;;
8113;SDS011;4099;52.684;9.918;2022-10-26T07:55:54;14.70;;;9.17;;
8113;SDS011;4099;52.684;9.918;2022-10-26T08:00:57;14.07;;;9.43;;
8113;SDS011;4099;52.684;9.918;2022-10-26T08:06:06;15.17;;;10.07;;
8113;SDS011;4099;52.684;9.918;2022-10-26T08:11:09;13.73;;;9.77;;
8113;SDS011;4099;52.684;9.918;2022-10-26T08:16:11;15.23;;;11.00;;
8113;SDS011;4099;52.684;9.918;2022-10-26T08:21:15;17.90;;;11.50;;
8113;SDS011;4099;52.684;9.918;2022-10-26T08:26:17;15.33;;;10.60;;
8113;SDS011;4099;52.684;9.918;2022-10-26T08:31:20;14.57;;;9.83;;
8113;SDS011;4099;52.684;9.918;2022-10-26T08:36:24;18.17;;;9.77;;
8113;SDS011;4099;52.684;9.918;2022-10-26T08:41:30;15.70;;;9.27;;
8113;SDS011;4099;52.684;9.918;2022-10-26T08:46:36;13.63;;;9.00;;
8113;SDS011;4099;52.684;9.918;2022-10-26T08:51:46;11.53;;;8.23;;
8113;SDS011;4099;52.684;9.918;2022-10-26T08:56:51;12.90;;;7.33;;
8113;SDS011;4099;52.684;9.918;2022-10-26T09:01:55;9.70;;;6.60;;
8113;SDS011;4099;52.684;9.918;2022-10-26T09:07:00;8.47;;;6.40;;
8113;SDS011;4099;52.684;9.918;2022-10-26T09:12:09;9.40;;;6.67;;
8113;SDS011;4099;52.684;9.918;2022-10-26T09:17:17;9.43;;;5.97;;
8113;SDS011;4099;52.684;9.918;2022-10-26T09:22:32;8.50;;;6.17;;
8113;SDS011;4099;52.684;9.918;2022-10-26T09:27:42;10.10;;;5.57;;
8113;SDS011;4099;52.684;9.918;2022-10-26T09:32:47;8.37;;;5.73;;
8113;SDS011;4099;52.684;9.918;2022-10-26T09:37:53;7.87;;;5.40;;
8113;SDS011;4099;52.684;9.918;2022-10-26T09:42:57;7.70;;;5.40;;
8113;SDS011;4099;52.684;9.918;2022-10-26T09:48:04;7.57;;;5.30;;
8113;SDS011;4099;52.684;9.918;2022-10-26T09:53:12;8.33;;;5.30;;
8113;SDS011;4099;52.684;9.918;2022-10-26T09:58:14;7.30;;;5.70;;
8113;SDS011;4099;52.684;9.918;2022-10-26T10:03:23;6.30;;;4.90;;
8113;SDS011;4099;52.684;9.918;2022-10-26T10:08:28;7.93;;;5.17;;
8113;SDS011;4099;52.684;9.918;2022-10-26T10:13:30;6.70;;;4.73;;
8113;SDS011;4099;52.684;9.918;2022-10-26T10:18:33;11.30;;;8.27;;
8113;SDS011;4099;52.684;9.918;2022-10-26T10:23:46;11.00;;;7.70;;
8113;SDS011;4099;52.684;9.918;2022-10-26T10:28:57;5.77;;;4.70;;
8113;SDS011;4099;52.684;9.918;2022-10-26T10:34:01;7.23;;;4.83;;
8113;SDS011;4099;52.684;9.918;2022-10-26T10:39:27;5.87;;;4.53;;
8113;SDS011;4099;52.684;9.918;2022-10-26T10:44:37;5.47;;;3.80;;
8113;SDS011;4099;52.684;9.918;2022-10-26T10:49:40;4.90;;;3.90;;
8113;SDS011;4099;52.684;9.918;2022-10-26T10:54:44;5.50;;;4.20;;
8113;SDS011;4099;52.684;9.918;2022-10-26T10:59:53;7.37;;;3.30;;
8113;SDS011;4099;52.684;9.918;2022-10-26T11:05:04;5.30;;;3.60;;
8113;SDS011;4099;52.684;9.918;2022-10-26T11:10:21;4.23;;;3.17;;
8113;SDS011;4099;52.684;9.918;2022-10-26T11:15:29;3.93;;;2.73;;
8113;SDS011;4099;52.684;9.918;2022-10-26T11:20:34;7.27;;;3.03;;
8113;SDS011;4099;52.684;9.918;2022-10-26T11:25:43;4.23;;;3.00;;
8113;SDS011;4099;52.684;9.918;2022-10-26T11:30:51;5.43;;;2.97;;
8113;SDS011;4099;52.684;9.918;2022-10-26T11:35:58;4.40;;;3.80;;
8113;SDS011;4099;52.684;9.918;2022-10-26T11:41:07;3.33;;;2.90;;
8113;SDS011;4099;52.684;9.918;2022-10-26T11:46:19;4.03;;;3.53;;
8113;SDS011;4099;52.684;9.918;2022-10-26T11:51:32;6.83;;;3.60;;
8113;SDS011;4099;52.684;9.918;2022-10-26T11:56:40;3.97;;;3.07;;
8113;SDS011;4099;52.684;9.918;2022-10-26T12:01:46;5.40;;;3.47;;
8113;SDS011;4099;52.684;9.918;2022-10-26T12:06:51;13.83;;;12.43;;
8113;SDS011;4099;52.684;9.918;2022-10-26T12:11:59;6.40;;;3.80;;
8113;SDS011;4099;52.684;9.918;2022-10-26T12:17:05;6.93;;;3.87;;
8113;SDS011;4099;52.684;9.918;2022-10-26T12:22:13;5.47;;;3.97;;
8113;SDS011;4099;52.684;9.918;2022-10-26T12:32:53;5.70;;;2.77;;
8113;SDS011;4099;52.684;9.918;2022-10-26T12:37:56;2.53;;;2.33;;
8113;SDS011;4099;52.684;9.918;2022-10-26T12:43:31;3.93;;;2.50;;
8113;SDS011;4099;52.684;9.918;2022-10-26T12:48:40;3.63;;;2.37;;
8113;SDS011;4099;52.684;9.918;2022-10-26T12:53:42;4.97;;;2.50;;
8113;SDS011;4099;52.684;9.918;2022-10-26T12:59:02;3.50;;;2.03;;
8113;SDS011;4099;52.684;9.918;2022-10-26T13:09:43;1.90;;;1.70;;
8113;SDS011;4099;52.684;9.918;2022-10-26T13:14:58;4.83;;;2.10;;
8113;SDS011;4099;52.684;9.918;2022-10-26T13:20:03;2.27;;;1.80;;
8113;SDS011;4099;52.684;9.918;2022-10-26T13:25:14;2.93;;;1.80;;
8113;SDS011;4099;52.684;9.918;2022-10-26T13:35:48;2.10;;;1.90;;
8113;SDS011;4099;52.684;9.918;2022-10-26T13:40:56;4.20;;;2.10;;
8113;SDS011;4099;52.684;9.918;2022-10-26T13:46:12;3.33;;;1.87;;
8113;SDS011;4099;52.684;9.918;2022-10-26T13:51:25;2.73;;;2.10;;
8113;SDS011;4099;52.684;9.918;2022-10-26T13:56:36;4.67;;;2.27;;
8113;SDS011;4099;52.684;9.918;2022-10-26T14:01:44;2.63;;;1.90;;
8113;SDS011;4099;52.684;9.918;2022-10-26T14:07:05;6.77;;;2.30;;
8113;SDS011;4099;52.684;9.918;2022-10-26T14:12:15;3.67;;;1.90;;
8113;SDS011;4099;52.684;9.918;2022-10-26T14:17:19;3.70;;;2.00;;
8113;SDS011;4099;52.684;9.918;2022-10-26T14:22:25;4.23;;;2.10;;
8113;SDS011;4099;52.684;9.918;2022-10-26T14:27:30;6.00;;;2.27;;
8113;SDS011;4099;52.684;9.918;2022-10-26T14:32:35;6.77;;;5.67;;
8113;SDS011;4099;52.684;9.918;2022-10-26T14:37:38;5.50;;;5.00;;
8113;SDS011;4099;52.684;9.918;2022-10-26T14:42:46;8.10;;;5.60;;
8113;SDS011;4099;52.684;9.918;2022-10-26T14:47:51;5.87;;;3.37;;
8113;SDS011;4099;52.684;9.918;2022-10-26T14:52:56;7.17;;;3.83;;
8113;SDS011;4099;52.684;9.918;2022-10-26T14:58:12;4.70;;;2.40;;
8113;SDS011;4099;52.684;9.918;2022-10-26T15:03:19;3.53;;;2.47;;
8113;SDS011;4099;52.684;9.918;2022-10-26T15:08:41;5.37;;;4.87;;
8113;SDS011;4099;52.684;9.918;2022-10-26T15:13:46;4.80;;;2.70;;
8113;SDS011;4099;52.684;9.918;2022-10-26T15:18:51;4.50;;;2.43;;
8113;SDS011;4099;52.684;9.918;2022-10-26T15:23:57;3.57;;;2.20;;
8113;SDS011;4099;52.684;9.918;2022-10-26T15:29:00;4.10;;;2.30;;
8113;SDS011;4099;52.684;9.918;2022-10-26T15:34:11;3.50;;;2.23;;
8113;SDS011;4099;52.684;9.918;2022-10-26T15:39:14;4.20;;;2.90;;
8113;SDS011;4099;52.684;9.918;2022-10-26T15:44:17;4.40;;;3.60;;
8113;SDS011;4099;52.684;9.918;2022-10-26T15:49:23;5.03;;;3.30;;
8113;SDS011;4099;52.684;9.918;2022-10-26T15:54:26;8.47;;;7.50;;
8113;SDS011;4099;52.684;9.918;2022-10-26T15:59:28;8.90;;;6.60;;
8113;SDS011;4099;52.684;9.918;2022-10-26T16:04:32;15.00;;;10.77;;
8113;SDS011;4099;52.684;9.918;2022-10-26T16:09:34;16.00;;;10.77;;
8113;SDS011;4099;52.684;9.918;2022-10-26T16:14:37;35.27;;;22.47;;
8113;SDS011;4099;52.684;9.918;2022-10-26T16:19:41;17.63;;;12.77;;
8113;SDS011;4099;52.684;9.918;2022-10-26T16:24:45;15.40;;;10.90;;
8113;SDS011;4099;52.684;9.918;2022-10-26T16:29:47;14.37;;;10.90;;
8113;SDS011;4099;52.684;9.918;2022-10-26T16:34:51;23.33;;;15.03;;
8113;SDS011;4099;52.684;9.918;2022-10-26T16:39:53;21.10;;;12.97;;
8113;SDS011;4099;52.684;9.918;2022-10-26T16:44:56;17.97;;;11.33;;
8113;SDS011;4099;52.684;9.918;2022-10-26T16:50:00;13.33;;;9.70;;
8113;SDS011;4099;52.684;9.918;2022-10-26T16:55:03;12.07;;;9.33;;
8113;SDS011;4099;52.684;9.918;2022-10-26T17:00:07;11.57;;;8.70;;
8113;SDS011;4099;52.684;9.918;2022-10-26T17:05:12;9.90;;;8.33;;
8113;SDS011;4099;52.684;9.918;2022-10-26T17:10:15;10.00;;;8.53;;
8113;SDS011;4099;52.684;9.918;2022-10-26T17:15:17;13.93;;;9.33;;
8113;SDS011;4099;52.684;9.918;2022-10-26T17:20:21;13.13;;;11.87;;
8113;SDS011;4099;52.684;9.918;2022-10-26T17:25:23;14.60;;;13.10;;
8113;SDS011;4099;52.684;9.918;2022-10-26T17:30:26;17.27;;;14.63;;
8113;SDS011;4099;52.684;9.918;2022-10-26T17:35:30;17.43;;;15.43;;
8113;SDS011;4099;52.684;9.918;2022-10-26T17:40:33;20.97;;;17.37;;
8113;SDS011;4099;52.684;9.918;2022-10-26T17:45:35;16.53;;;14.07;;
8113;SDS011;4099;52.684;9.918;2022-10-26T17:50:39;21.57;;;18.40;;
8113;SDS011;4099;52.684;9.918;2022-10-26T17:55:41;30.97;;;24.20;;
8113;SDS011;4099;52.684;9.918;2022-10-26T18:00:44;26.13;;;18.60;;
8113;SDS011;4099;52.684;9.918;2022-10-26T18:05:49;18.40;;;15.93;;
8113;SDS011;4099;52.684;9.918;2022-10-26T18:10:52;15.93;;;14.10;;
8113;SDS011;4099;52.684;9.918;2022-10-26T18:16:01;16.90;;;14.47;;
8113;SDS011;4099;52.684;9.918;2022-10-26T18:21:06;19.17;;;15.90;;
8113;SDS011;4099;52.684;9.918;2022-10-26T18:26:13;19.53;;;16.23;;
8113;SDS011;4099;52.684;9.918;2022-10-26T18:31:17;23.33;;;17.47;;
8113;SDS011;4099;52.684;9.918;2022-10-26T18:36:22;22.87;;;17.50;;
8113;SDS011;4099;52.684;9.918;2022-10-26T18:41:25;17.90;;;14.93;;
8113;SDS011;4099;52.684;9.918;2022-10-26T18:46:28;20.90;;;16.63;;
8113;SDS011;4099;52.684;9.918;2022-10-26T18:51:34;20.60;;;17.33;;
8113;SDS011;4099;52.684;9.918;2022-10-26T18:56:37;22.90;;;16.97;;
8113;SDS011;4099;52.684;9.918;2022-10-26T19:01:39;19.60;;;17.17;;
8113;SDS011;4099;52.684;9.918;2022-10-26T19:06:43;23.53;;;17.97;;
8113;SDS011;4099;52.684;9.918;2022-10-26T19:11:47;21.37;;;18.23;;
8113;SDS011;4099;52.684;9.918;2022-10-26T19:16:49;21.90;;;17.60;;
8113;SDS011;4099;52.684;9.918;2022-10-26T19:21:54;20.43;;;17.00;;
8113;SDS011;4099;52.684;9.918;2022-10-26T19:26:58;19.97;;;17.17;;
8113;SDS011;4099;52.684;9.918;2022-10-26T19:32:01;19.57;;;17.33;;
8113;SDS011;4099;52.684;9.918;2022-10-26T19:37:04;22.40;;;19.57;;
8113;SDS011;4099;52.684;9.918;2022-10-26T19:42:08;25.77;;;19.90;;
8113;SDS011;4099;52.684;9.918;2022-10-26T19:47:11;24.90;;;21.13;;
8113;SDS011;4099;52.684;9.918;2022-10-26T19:52:15;23.13;;;20.00;;
8113;SDS011;4099;52.684;9.918;2022-10-26T19:57:17;24.90;;;21.70;;
8113;SDS011;4099;52.684;9.918;2022-10-26T20:02:20;22.37;;;20.03;;
8113;SDS011;4099;52.684;9.918;2022-10-26T20:07:23;23.80;;;19.53;;
8113;SDS011;4099;52.684;9.918;2022-10-26T20:12:27;21.13;;;18.73;;
8113;SDS011;4099;52.684;9.918;2022-10-26T20:17:30;22.60;;;19.07;;
8113;SDS011;4099;52.684;9.918;2022-10-26T20:22:36;22.97;;;19.17;;
8113;SDS011;4099;52.684;9.918;2022-10-26T20:27:39;23.53;;;19.43;;
8113;SDS011;4099;52.684;9.918;2022-10-26T20:32:41;24.93;;;19.87;;
8113;SDS011;4099;52.684;9.918;2022-10-26T20:37:45;30.00;;;23.40;;
8113;SDS011;4099;52.684;9.918;2022-10-26T20:42:48;37.43;;;28.10;;
8113;SDS011;4099;52.684;9.918;2022-10-26T20:47:52;48.50;;;33.97;;
8113;SDS011;4099;52.684;9.918;2022-10-26T20:52:57;44.77;;;30.40;;
8113;SDS011;4099;52.684;9.918;2022-10-26T20:58:04;34.53;;;24.27;;
8113;SDS011;4099;52.684;9.918;2022-10-26T21:03:13;29.77;;;21.63;;
8113;SDS011;4099;52.684;9.918;2022-10-26T21:08:17;31.30;;;19.90;;
8113;SDS011;4099;52.684;9.918;2022-10-26T21:13:19;24.33;;;16.97;;
8113;SDS011;4099;52.684;9.918;2022-10-26T21:18:22;18.93;;;14.23;;
8113;SDS011;4099;52.684;9.918;2022-10-26T21:23:28;15.07;;;11.87;;
8113;SDS011;4099;52.684;9.918;2022-10-26T21:28:32;14.40;;;10.70;;
8113;SDS011;4099;52.684;9.918;2022-10-26T21:33:35;14.00;;;9.73;;
8113;SDS011;4099;52.684;9.918;2022-10-26T21:38:43;11.50;;;9.00;;
8113;SDS011;4099;52.684;9.918;2022-10-26T21:43:46;10.43;;;7.73;;
8113;SDS011;4099;52.684;9.918;2022-10-26T21:48:50;9.93;;;7.23;;
8113;SDS011;4099;52.684;9.918;2022-10-26T21:53:54;9.77;;;7.23;;
8113;SDS011;4099;52.684;9.918;2022-10-26T21:58:57;10.40;;;7.80;;
8113;SDS011;4099;52.684;9.918;2022-10-26T22:04:01;11.33;;;7.43;;
8113;SDS011;4099;52.684;9.918;2022-10-26T22:09:05;8.50;;;6.20;;
8113;SDS011;4099;52.684;9.918;2022-10-26T22:14:07;11.43;;;8.40;;
8113;SDS011;4099;52.684;9.918;2022-10-26T22:19:10;15.33;;;9.23;;
8113;SDS011;4099;52.684;9.918;2022-10-26T22:24:14;10.03;;;8.33;;
8113;SDS011;4099;52.684;9.918;2022-10-26T22:29:16;9.47;;;8.43;;
8113;SDS011;4099;52.684;9.918;2022-10-26T22:34:19;14.47;;;9.50;;
8113;SDS011;4099;52.684;9.918;2022-10-26T22:39:24;13.27;;;9.87;;
8113;SDS011;4099;52.684;9.918;2022-10-26T22:44:26;10.17;;;8.60;;
8113;SDS011;4099;52.684;9.918;2022-10-26T22:49:28;10.37;;;7.57;;
8113;SDS011;4099;52.684;9.918;2022-10-26T22:54:32;11.03;;;7.50;;
8113;SDS011;4099;52.684;9.918;2022-10-26T22:59:35;8.47;;;7.57;;
8113;SDS011;4099;52.684;9.918;2022-10-26T23:04:37;10.73;;;7.37;;
8113;SDS011;4099;52.684;9.918;2022-10-26T23:09:41;8.30;;;6.93;;
8113;SDS011;4099;52.684;9.918;2022-10-26T23:14:43;8.30;;;6.33;;
8113;SDS011;4099;52.684;9.918;2022-10-26T23:19:46;7.70;;;6.37;;
8113;SDS011;4099;52.684;9.918;2022-10-26T23:24:50;9.87;;;6.00;;
8113;SDS011;4099;52.684;9.918;2022-10-26T23:29:52;8.13;;;6.17;;
8113;SDS011;4099;52.684;9.918;2022-10-26T23:34:54;7.30;;;6.53;;
8113;SDS011;4099;52.684;9.918;2022-10-26T23:39:58;7.17;;;6.10;;
8113;SDS011;4099;52.684;9.918;2022-10-26T23:44:59;10.27;;;5.50;;
8113;SDS011;4099;52.684;9.918;2022-10-26T23:50:01;7.30;;;5.40;;
8113;SDS011;4099;52.684;9.918;2022-10-26T23:55:05;6.47;;;5.60;;
